sensor_id;sensor_type;location;lat;lon;timestamp;pressure;altitude;pressure_sealevel;temperature;humidity
19259;BME280;9763;48.780;9.212;2023-08-01T00:02:23;97396.72;;;22.01;78.86
19259;BME280;9763;48.780;9.212;2023-08-01T00:05:46;97356.72;;;21.81;78.38
19259;BME280;9763;48.780;9.212;2023-08-01T00:09:11;97380.91;;;21.92;78.59
19259;BME280;9763;48.780;9.212;2023-08-01T00:12:36;97386.81;;;21.88;79.08
19259;BME280;9763;48.780;9.212;2023-08-01T00:15:59;97374.75;;;21.85;79.17
19259;BME280;9763;48.780;9.212;2023-08-01T00:19:29;97364.13;;;21.85;78.80
19259;BME280;9763;48.780;9.212;2023-08-01T00:22:53;97358.84;;;21.92;79.51
19259;BME280;9763;48.780;9.212;2023-08-01T00:26:16;97358.41;;;21.88;78.94
19259;BME280;9763;48.780;9.212;2023-08-01T00:29:41;97341.00;;;21.86;79.50
19259;BME280;9763;48.780;9.212;2023-08-01T00:33:05;97349.59;;;21.88;79.15
19259;BME280;9763;48.780;9.212;2023-08-01T00:36:29;97336.75;;;21.91;79.71
19259;BME280;9763;48.780;9.212;2023-08-01T00:39:52;97333.50;;;21.96;79.86
19259;BME280;9763;48.780;9.212;2023-08-01T00:43:16;97323.31;;;22.00;80.29
19259;BME280;9763;48.780;9.212;2023-08-01T00:46:41;97315.59;;;22.05;79.72
19259;BME280;9763;48.780;9.212;2023-08-01T00:50:07;97318.88;;;22.07;80.56
19259;BME280;9763;48.780;9.212;2023-08-01T00:53:31;97312.31;;;22.03;80.51
19259;BME280;9763;48.780;9.212;2023-08-01T00:56:55;97314.38;;;22.14;80.52
19259;BME280;9763;48.780;9.212;2023-08-01T01:00:19;97297.63;;;22.13;80.58
19259;BME280;9763;48.780;9.212;2023-08-01T01:03:44;97292.28;;;22.13;80.26
19259;BME280;9763;48.780;9.212;2023-08-01T01:07:09;97285.34;;;22.12;80.23
19259;BME280;9763;48.780;9.212;2023-08-01T01:10:32;97283.31;;;22.08;79.73
19259;BME280;9763;48.780;9.212;2023-08-01T01:13:56;97283.69;;;22.05;79.68
19259;BME280;9763;48.780;9.212;2023-08-01T01:17:19;97275.91;;;22.03;80.21
19259;BME280;9763;48.780;9.212;2023-08-01T01:20:44;97258.72;;;21.99;80.21
19259;BME280;9763;48.780;9.212;2023-08-01T01:24:10;97256.66;;;21.95;79.35
19259;BME280;9763;48.780;9.212;2023-08-01T01:27:36;97251.50;;;21.86;79.35
19259;BME280;9763;48.780;9.212;2023-08-01T01:31:02;97260.28;;;21.80;79.83
19259;BME280;9763;48.780;9.212;2023-08-01T01:34:27;97230.22;;;21.73;79.58
19259;BME280;9763;48.780;9.212;2023-08-01T01:37:52;97193.56;;;21.55;79.27
19259;BME280;9763;48.780;9.212;2023-08-01T01:41:16;97229.16;;;21.68;79.21
19259;BME280;9763;48.780;9.212;2023-08-01T01:44:40;97217.47;;;21.62;79.03
19259;BME280;9763;48.780;9.212;2023-08-01T01:48:03;97221.38;;;21.60;79.43
19259;BME280;9763;48.780;9.212;2023-08-01T01:51:28;97213.16;;;21.54;79.75
19259;BME280;9763;48.780;9.212;2023-08-01T01:54:53;97206.84;;;21.49;79.76
19259;BME280;9763;48.780;9.212;2023-08-01T01:58:17;97212.78;;;21.58;80.36
19259;BME280;9763;48.780;9.212;2023-08-01T02:01:40;97195.22;;;21.63;80.17
19259;BME280;9763;48.780;9.212;2023-08-01T02:05:05;97183.56;;;21.64;80.50
19259;BME280;9763;48.780;9.212;2023-08-01T02:08:28;97195.06;;;21.71;80.01
19259;BME280;9763;48.780;9.212;2023-08-01T02:11:53;97198.75;;;21.77;80.15
19259;BME280;9763;48.780;9.212;2023-08-01T02:15:17;97196.75;;;21.85;80.38
19259;BME280;9763;48.780;9.212;2023-08-01T02:18:41;97180.19;;;21.90;80.70
19259;BME280;9763;48.780;9.212;2023-08-01T02:22:05;97184.91;;;21.95;80.23
19259;BME280;9763;48.780;9.212;2023-08-01T02:25:28;97189.63;;;21.99;80.68
19259;BME280;9763;48.780;9.212;2023-08-01T02:28:53;97178.41;;;22.04;80.72
19259;BME280;9763;48.780;9.212;2023-08-01T02:32:17;97166.91;;;21.97;80.83
19259;BME280;9763;48.780;9.212;2023-08-01T02:35:41;97203.38;;;22.16;79.59
19259;BME280;9763;48.780;9.212;2023-08-01T02:39:04;97209.50;;;22.23;79.49
19259;BME280;9763;48.780;9.212;2023-08-01T02:42:28;97205.03;;;22.30;79.27
19259;BME280;9763;48.780;9.212;2023-08-01T02:45:53;97184.75;;;22.36;79.52
19259;BME280;9763;48.780;9.212;2023-08-01T02:49:16;97178.81;;;22.47;79.10
19259;BME280;9763;48.780;9.212;2023-08-01T02:52:40;97174.75;;;22.51;78.31
19259;BME280;9763;48.780;9.212;2023-08-01T02:56:04;97136.69;;;22.37;78.78
19259;BME280;9763;48.780;9.212;2023-08-01T02:59:29;97145.50;;;22.44;78.08
19259;BME280;9763;48.780;9.212;2023-08-01T03:02:57;97162.66;;;22.61;78.58
19259;BME280;9763;48.780;9.212;2023-08-01T03:06:21;97179.25;;;22.63;78.12
19259;BME280;9763;48.780;9.212;2023-08-01T03:09:44;97160.63;;;22.63;77.92
19259;BME280;9763;48.780;9.212;2023-08-01T03:13:08;97161.63;;;22.62;77.54
19259;BME280;9763;48.780;9.212;2023-08-01T03:16:32;97155.72;;;22.60;77.07
19259;BME280;9763;48.780;9.212;2023-08-01T03:19:57;97144.66;;;22.63;77.81
19259;BME280;9763;48.780;9.212;2023-08-01T03:23:21;97127.91;;;22.56;77.02
19259;BME280;9763;48.780;9.212;2023-08-01T03:26:45;97142.63;;;22.66;76.78
19259;BME280;9763;48.780;9.212;2023-08-01T03:30:10;97141.78;;;22.65;76.91
19259;BME280;9763;48.780;9.212;2023-08-01T03:33:34;97144.88;;;22.62;76.70
19259;BME280;9763;48.780;9.212;2023-08-01T03:36:59;97149.97;;;22.63;76.30
19259;BME280;9763;48.780;9.212;2023-08-01T03:40:23;97150.59;;;22.59;76.42
19259;BME280;9763;48.780;9.212;2023-08-01T03:43:47;97146.72;;;22.55;76.45
19259;BME280;9763;48.780;9.212;2023-08-01T03:47:11;97144.06;;;22.55;76.40
19259;BME280;9763;48.780;9.212;2023-08-01T03:50:34;97145.69;;;22.56;76.38
19259;BME280;9763;48.780;9.212;2023-08-01T03:53:59;97150.81;;;22.57;75.94
19259;BME280;9763;48.780;9.212;2023-08-01T03:57:34;97142.59;;;22.59;75.61
19259;BME280;9763;48.780;9.212;2023-08-01T04:00:58;97138.75;;;22.55;75.92
19259;BME280;9763;48.780;9.212;2023-08-01T04:04:22;97130.56;;;22.50;76.03
19259;BME280;9763;48.780;9.212;2023-08-01T04:07:46;97123.59;;;22.49;75.90
19259;BME280;9763;48.780;9.212;2023-08-01T04:11:11;97107.63;;;22.49;75.60
19259;BME280;9763;48.780;9.212;2023-08-01T04:14:34;97076.38;;;22.44;75.04
19259;BME280;9763;48.780;9.212;2023-08-01T04:17:58;97036.44;;;22.51;74.83
19259;BME280;9763;48.780;9.212;2023-08-01T04:21:22;97041.97;;;22.49;74.90
19259;BME280;9763;48.780;9.212;2023-08-01T04:24:45;97017.44;;;22.47;75.15
19259;BME280;9763;48.780;9.212;2023-08-01T04:28:11;97014.59;;;22.36;75.31
19259;BME280;9763;48.780;9.212;2023-08-01T04:31:34;96997.84;;;22.28;75.76
19259;BME280;9763;48.780;9.212;2023-08-01T04:34:58;96988.84;;;22.23;75.20
19259;BME280;9763;48.780;9.212;2023-08-01T04:38:22;96957.78;;;22.23;75.83
19259;BME280;9763;48.780;9.212;2023-08-01T04:41:45;96956.13;;;22.22;76.01
19259;BME280;9763;48.780;9.212;2023-08-01T04:45:10;96946.56;;;22.21;75.76
19259;BME280;9763;48.780;9.212;2023-08-01T04:48:34;96914.00;;;22.26;75.52
19259;BME280;9763;48.780;9.212;2023-08-01T04:51:58;96939.16;;;22.30;74.57
19259;BME280;9763;48.780;9.212;2023-08-01T04:55:22;96967.19;;;22.33;75.14
19259;BME280;9763;48.780;9.212;2023-08-01T04:58:46;96988.41;;;22.39;74.32
19259;BME280;9763;48.780;9.212;2023-08-01T05:02:11;96985.75;;;22.46;74.73
19259;BME280;9763;48.780;9.212;2023-08-01T05:05:34;96972.25;;;22.41;74.58
19259;BME280;9763;48.780;9.212;2023-08-01T05:08:58;97005.34;;;22.51;74.20
19259;BME280;9763;48.780;9.212;2023-08-01T05:12:22;97007.22;;;22.38;74.26
19259;BME280;9763;48.780;9.212;2023-08-01T05:15:46;97050.34;;;22.59;73.87
19259;BME280;9763;48.780;9.212;2023-08-01T05:19:11;97076.53;;;22.62;73.34
19259;BME280;9763;48.780;9.212;2023-08-01T05:22:35;97065.47;;;22.66;73.41
19259;BME280;9763;48.780;9.212;2023-08-01T05:25:58;97040.09;;;22.70;73.45
19259;BME280;9763;48.780;9.212;2023-08-01T05:29:22;97042.53;;;22.78;73.68
19259;BME280;9763;48.780;9.212;2023-08-01T05:32:46;97060.09;;;22.85;73.36
19259;BME280;9763;48.780;9.212;2023-08-01T05:36:11;97070.34;;;22.88;72.96
19259;BME280;9763;48.780;9.212;2023-08-01T05:39:35;97075.03;;;22.93;72.92
19259;BME280;9763;48.780;9.212;2023-08-01T05:42:58;97052.28;;;22.97;73.07
19259;BME280;9763;48.780;9.212;2023-08-01T05:46:22;97051.44;;;23.03;73.43
19259;BME280;9763;48.780;9.212;2023-08-01T05:49:46;97042.59;;;23.09;73.11
19259;BME280;9763;48.780;9.212;2023-08-01T05:53:11;97047.09;;;23.15;72.50
19259;BME280;9763;48.780;9.212;2023-08-01T05:56:34;97044.38;;;23.22;72.36
19259;BME280;9763;48.780;9.212;2023-08-01T05:59:58;97052.16;;;23.30;72.70
19259;BME280;9763;48.780;9.212;2023-08-01T06:03:24;97061.31;;;23.34;72.14
19259;BME280;9763;48.780;9.212;2023-08-01T06:06:48;97069.91;;;23.36;72.16
19259;BME280;9763;48.780;9.212;2023-08-01T06:10:12;97069.09;;;23.35;71.68
19259;BME280;9763;48.780;9.212;2023-08-01T06:13:36;97067.69;;;23.33;72.09
19259;BME280;9763;48.780;9.212;2023-08-01T06:17:00;97057.47;;;23.30;71.62
19259;BME280;9763;48.780;9.212;2023-08-01T06:20:24;97057.06;;;23.26;71.39
19259;BME280;9763;48.780;9.212;2023-08-01T06:23:47;97066.72;;;23.21;70.70
19259;BME280;9763;48.780;9.212;2023-08-01T06:27:12;97052.06;;;23.05;71.28
19259;BME280;9763;48.780;9.212;2023-08-01T06:30:37;97069.78;;;22.67;71.97
19259;BME280;9763;48.780;9.212;2023-08-01T06:34:01;97069.22;;;22.18;73.00
19259;BME280;9763;48.780;9.212;2023-08-01T06:37:25;97086.97;;;21.98;73.52
19259;BME280;9763;48.780;9.212;2023-08-01T06:40:48;97096.16;;;21.69;74.09
19259;BME280;9763;48.780;9.212;2023-08-01T06:44:13;97100.63;;;21.49;75.16
19259;BME280;9763;48.780;9.212;2023-08-01T06:47:37;97103.00;;;21.31;75.42
19259;BME280;9763;48.780;9.212;2023-08-01T06:51:01;97105.78;;;21.16;75.77
19259;BME280;9763;48.780;9.212;2023-08-01T06:54:25;97119.16;;;21.01;75.99
19259;BME280;9763;48.780;9.212;2023-08-01T06:57:48;97091.16;;;20.85;75.68
19259;BME280;9763;48.780;9.212;2023-08-01T07:01:14;97079.84;;;20.70;76.86
19259;BME280;9763;48.780;9.212;2023-08-01T07:04:38;97075.72;;;20.61;77.00
19259;BME280;9763;48.780;9.212;2023-08-01T07:08:02;97072.66;;;20.58;78.02
19259;BME280;9763;48.780;9.212;2023-08-01T07:11:26;97081.41;;;20.58;78.30
19259;BME280;9763;48.780;9.212;2023-08-01T07:14:50;97084.69;;;20.60;79.57
19259;BME280;9763;48.780;9.212;2023-08-01T07:18:15;97073.72;;;20.63;79.39
19259;BME280;9763;48.780;9.212;2023-08-01T07:21:38;97069.44;;;20.69;79.99
19259;BME280;9763;48.780;9.212;2023-08-01T07:25:02;97077.44;;;20.75;80.69
19259;BME280;9763;48.780;9.212;2023-08-01T07:28:26;97086.22;;;20.76;80.70
19259;BME280;9763;48.780;9.212;2023-08-01T07:31:50;97099.88;;;20.73;79.73
19259;BME280;9763;48.780;9.212;2023-08-01T07:35:15;97124.91;;;20.64;79.03
19259;BME280;9763;48.780;9.212;2023-08-01T07:38:39;97106.28;;;20.57;80.08
19259;BME280;9763;48.780;9.212;2023-08-01T07:42:03;97106.91;;;20.53;79.73
19259;BME280;9763;48.780;9.212;2023-08-01T07:45:26;97113.34;;;20.43;79.29
19259;BME280;9763;48.780;9.212;2023-08-01T07:48:50;97108.53;;;20.32;80.07
19259;BME280;9763;48.780;9.212;2023-08-01T07:52:17;97122.94;;;20.23;80.32
19259;BME280;9763;48.780;9.212;2023-08-01T07:55:40;97116.72;;;20.09;80.35
19259;BME280;9763;48.780;9.212;2023-08-01T07:59:04;97103.34;;;19.96;80.70
19259;BME280;9763;48.780;9.212;2023-08-01T08:02:27;97105.97;;;19.90;80.66
19259;BME280;9763;48.780;9.212;2023-08-01T08:05:51;97111.63;;;19.87;81.24
19259;BME280;9763;48.780;9.212;2023-08-01T08:09:16;97100.41;;;19.85;82.31
19259;BME280;9763;48.780;9.212;2023-08-01T08:12:40;97080.69;;;19.87;82.80
19259;BME280;9763;48.780;9.212;2023-08-01T08:16:04;97072.53;;;19.89;83.09
19259;BME280;9763;48.780;9.212;2023-08-01T08:19:28;97083.81;;;19.97;83.02
19259;BME280;9763;48.780;9.212;2023-08-01T08:22:52;97089.47;;;19.94;83.51
19259;BME280;9763;48.780;9.212;2023-08-01T08:26:17;97094.38;;;19.91;83.03
19259;BME280;9763;48.780;9.212;2023-08-01T08:29:41;97100.06;;;19.94;83.67
19259;BME280;9763;48.780;9.212;2023-08-01T08:33:05;97066.75;;;19.78;84.32
19259;BME280;9763;48.780;9.212;2023-08-01T08:36:30;97093.22;;;20.00;83.97
19259;BME280;9763;48.780;9.212;2023-08-01T08:39:54;97100.00;;;20.09;84.12
19259;BME280;9763;48.780;9.212;2023-08-01T08:43:20;97104.75;;;20.13;84.90
19259;BME280;9763;48.780;9.212;2023-08-01T08:46:48;97103.25;;;20.32;85.35
19259;BME280;9763;48.780;9.212;2023-08-01T08:50:13;97098.78;;;20.61;85.69
19259;BME280;9763;48.780;9.212;2023-08-01T08:53:40;97105.50;;;20.98;87.03
19259;BME280;9763;48.780;9.212;2023-08-01T08:57:05;97118.69;;;21.26;86.39
19259;BME280;9763;48.780;9.212;2023-08-01T09:00:31;97111.19;;;21.36;86.25
19259;BME280;9763;48.780;9.212;2023-08-01T09:03:55;97105.94;;;21.49;85.90
19259;BME280;9763;48.780;9.212;2023-08-01T09:07:24;97098.41;;;21.59;85.96
19259;BME280;9763;48.780;9.212;2023-08-01T09:10:50;97099.03;;;21.61;85.45
19259;BME280;9763;48.780;9.212;2023-08-01T09:14:15;97107.78;;;21.55;85.22
19259;BME280;9763;48.780;9.212;2023-08-01T09:17:49;97112.88;;;21.56;84.84
19259;BME280;9763;48.780;9.212;2023-08-01T09:21:13;97109.22;;;21.58;84.86
19259;BME280;9763;48.780;9.212;2023-08-01T09:24:37;97108.16;;;21.52;84.28
19259;BME280;9763;48.780;9.212;2023-08-01T09:28:01;97108.38;;;21.50;84.38
19259;BME280;9763;48.780;9.212;2023-08-01T09:31:29;97107.97;;;21.53;85.15
19259;BME280;9763;48.780;9.212;2023-08-01T09:35:00;97112.69;;;21.58;84.82
19259;BME280;9763;48.780;9.212;2023-08-01T09:38:23;97117.41;;;21.69;84.77
19259;BME280;9763;48.780;9.212;2023-08-01T09:41:55;97122.13;;;21.87;85.64
19259;BME280;9763;48.780;9.212;2023-08-01T09:45:19;97122.59;;;22.10;86.17
19259;BME280;9763;48.780;9.212;2023-08-01T09:48:44;97121.78;;;22.30;84.99
19259;BME280;9763;48.780;9.212;2023-08-01T09:52:09;97124.22;;;22.38;85.07
19259;BME280;9763;48.780;9.212;2023-08-01T09:55:33;97133.22;;;22.37;84.99
19259;BME280;9763;48.780;9.212;2023-08-01T09:59:00;97135.25;;;22.48;84.58
19259;BME280;9763;48.780;9.212;2023-08-01T10:02:26;97115.22;;;22.52;85.33
19259;BME280;9763;48.780;9.212;2023-08-01T10:05:55;97143.84;;;22.63;85.39
19259;BME280;9763;48.780;9.212;2023-08-01T10:09:22;97151.59;;;22.71;84.78
19259;BME280;9763;48.780;9.212;2023-08-01T10:12:47;97138.34;;;22.78;84.78
19259;BME280;9763;48.780;9.212;2023-08-01T10:16:13;97142.63;;;22.79;84.45
19259;BME280;9763;48.780;9.212;2023-08-01T10:19:37;97134.59;;;22.72;83.62
19259;BME280;9763;48.780;9.212;2023-08-01T10:23:02;97148.94;;;22.71;83.75
19259;BME280;9763;48.780;9.212;2023-08-01T10:26:27;97156.34;;;22.76;83.67
19259;BME280;9763;48.780;9.212;2023-08-01T10:30:00;97157.75;;;22.85;84.43
19259;BME280;9763;48.780;9.212;2023-08-01T10:33:33;97150.59;;;22.92;83.73
19259;BME280;9763;48.780;9.212;2023-08-01T10:36:57;97146.91;;;22.93;84.17
19259;BME280;9763;48.780;9.212;2023-08-01T10:40:33;97146.59;;;23.27;84.68
19259;BME280;9763;48.780;9.212;2023-08-01T10:44:10;97146.75;;;23.32;84.34
19259;BME280;9763;48.780;9.212;2023-08-01T10:47:34;97151.69;;;24.12;86.70
19259;BME280;9763;48.780;9.212;2023-08-01T10:50:59;97140.88;;;24.56;84.58
19259;BME280;9763;48.780;9.212;2023-08-01T10:54:26;97146.91;;;24.70;84.24
19259;BME280;9763;48.780;9.212;2023-08-01T10:57:49;97156.16;;;24.67;83.15
19259;BME280;9763;48.780;9.212;2023-08-01T11:01:14;97162.09;;;24.69;82.31
19259;BME280;9763;48.780;9.212;2023-08-01T11:04:38;97174.94;;;25.59;80.41
19259;BME280;9763;48.780;9.212;2023-08-01T11:08:03;97170.03;;;26.69;77.65
19259;BME280;9763;48.780;9.212;2023-08-01T11:11:28;97173.91;;;27.71;73.42
19259;BME280;9763;48.780;9.212;2023-08-01T11:14:52;97159.34;;;28.24;69.09
19259;BME280;9763;48.780;9.212;2023-08-01T11:18:17;97167.97;;;29.15;67.81
19259;BME280;9763;48.780;9.212;2023-08-01T11:21:40;97166.38;;;30.33;65.12
19259;BME280;9763;48.780;9.212;2023-08-01T11:25:05;97162.84;;;31.43;62.67
19259;BME280;9763;48.780;9.212;2023-08-01T11:28:28;97167.50;;;31.58;60.89
19259;BME280;9763;48.780;9.212;2023-08-01T11:31:53;97173.34;;;31.40;61.03
19259;BME280;9763;48.780;9.212;2023-08-01T11:35:19;97176.47;;;31.69;59.66
19259;BME280;9763;48.780;9.212;2023-08-01T11:38:42;97170.34;;;31.94;58.99
19259;BME280;9763;48.780;9.212;2023-08-01T11:42:06;97170.63;;;32.02;58.83
19259;BME280;9763;48.780;9.212;2023-08-01T11:45:30;97160.97;;;32.57;57.69
19259;BME280;9763;48.780;9.212;2023-08-01T11:48:54;97176.59;;;33.16;56.36
19259;BME280;9763;48.780;9.212;2023-08-01T11:52:27;97181.13;;;33.46;54.32
19259;BME280;9763;48.780;9.212;2023-08-01T11:55:51;97181.19;;;33.25;54.39
19259;BME280;9763;48.780;9.212;2023-08-01T11:59:16;97177.72;;;32.69;55.52
19259;BME280;9763;48.780;9.212;2023-08-01T12:02:40;97180.97;;;32.31;55.98
19259;BME280;9763;48.780;9.212;2023-08-01T12:06:04;97190.88;;;31.95;57.80
19259;BME280;9763;48.780;9.212;2023-08-01T12:09:33;97202.47;;;31.95;56.33
19259;BME280;9763;48.780;9.212;2023-08-01T12:12:56;97182.66;;;31.12;54.70
19259;BME280;9763;48.780;9.212;2023-08-01T12:16:20;97191.69;;;30.32;52.40
19259;BME280;9763;48.780;9.212;2023-08-01T12:19:44;97201.03;;;29.32;55.59
19259;BME280;9763;48.780;9.212;2023-08-01T12:23:08;97195.56;;;28.72;57.17
19259;BME280;9763;48.780;9.212;2023-08-01T12:26:33;97191.69;;;29.56;53.84
19259;BME280;9763;48.780;9.212;2023-08-01T12:29:56;97190.22;;;30.19;53.69
19259;BME280;9763;48.780;9.212;2023-08-01T12:33:20;97173.25;;;30.77;52.56
19259;BME280;9763;48.780;9.212;2023-08-01T12:36:48;97201.44;;;31.44;50.62
19259;BME280;9763;48.780;9.212;2023-08-01T12:40:12;97204.50;;;31.63;50.34
19259;BME280;9763;48.780;9.212;2023-08-01T12:43:37;97208.94;;;31.94;50.39
19259;BME280;9763;48.780;9.212;2023-08-01T12:47:01;97191.44;;;32.17;47.48
19259;BME280;9763;48.780;9.212;2023-08-01T12:50:25;97194.19;;;32.37;48.61
19259;BME280;9763;48.780;9.212;2023-08-01T12:53:48;97202.09;;;32.84;49.66
19259;BME280;9763;48.780;9.212;2023-08-01T12:57:12;97195.81;;;32.33;50.04
19259;BME280;9763;48.780;9.212;2023-08-01T13:00:38;97170.41;;;32.39;49.74
19259;BME280;9763;48.780;9.212;2023-08-01T13:04:03;97196.09;;;32.52;48.96
19259;BME280;9763;48.780;9.212;2023-08-01T13:07:27;97180.72;;;32.78;47.02
19259;BME280;9763;48.780;9.212;2023-08-01T13:10:53;97192.84;;;33.06;46.90
19259;BME280;9763;48.780;9.212;2023-08-01T13:14:17;97194.72;;;33.20;47.74
19259;BME280;9763;48.780;9.212;2023-08-01T13:17:45;97188.75;;;33.29;45.23
19259;BME280;9763;48.780;9.212;2023-08-01T13:21:09;97212.03;;;33.24;46.05
19259;BME280;9763;48.780;9.212;2023-08-01T13:24:33;97213.38;;;33.27;45.27
19259;BME280;9763;48.780;9.212;2023-08-01T13:27:56;97195.00;;;32.99;41.90
19259;BME280;9763;48.780;9.212;2023-08-01T13:31:20;97203.69;;;32.90;45.51
19259;BME280;9763;48.780;9.212;2023-08-01T13:34:45;97195.28;;;32.62;43.66
19259;BME280;9763;48.780;9.212;2023-08-01T13:38:09;97210.44;;;32.47;44.72
19259;BME280;9763;48.780;9.212;2023-08-01T13:41:35;97214.44;;;32.19;45.62
19259;BME280;9763;48.780;9.212;2023-08-01T13:44:59;97200.53;;;31.75;45.66
19259;BME280;9763;48.780;9.212;2023-08-01T13:48:23;97200.56;;;31.85;44.42
19259;BME280;9763;48.780;9.212;2023-08-01T13:51:48;97205.31;;;31.11;48.23
19259;BME280;9763;48.780;9.212;2023-08-01T13:55:12;97206.34;;;29.92;51.80
19259;BME280;9763;48.780;9.212;2023-08-01T13:58:37;97192.28;;;29.03;50.79
19259;BME280;9763;48.780;9.212;2023-08-01T14:02:01;97197.41;;;28.38;52.60
19259;BME280;9763;48.780;9.212;2023-08-01T14:05:25;97200.78;;;27.88;53.60
19259;BME280;9763;48.780;9.212;2023-08-01T14:08:50;97214.38;;;27.58;53.78
19259;BME280;9763;48.780;9.212;2023-08-01T14:12:14;97214.63;;;27.33;53.89
19259;BME280;9763;48.780;9.212;2023-08-01T14:15:39;97201.84;;;27.12;54.45
19259;BME280;9763;48.780;9.212;2023-08-01T14:19:03;97203.94;;;26.98;54.22
19259;BME280;9763;48.780;9.212;2023-08-01T14:22:28;97205.56;;;26.87;55.80
19259;BME280;9763;48.780;9.212;2023-08-01T14:25:53;97204.38;;;26.83;55.66
19259;BME280;9763;48.780;9.212;2023-08-01T14:29:17;97217.91;;;26.88;57.35
19259;BME280;9763;48.780;9.212;2023-08-01T14:32:44;97201.28;;;26.98;57.20
19259;BME280;9763;48.780;9.212;2023-08-01T14:36:09;97214.22;;;27.01;57.25
19259;BME280;9763;48.780;9.212;2023-08-01T14:39:34;97220.97;;;27.04;58.01
19259;BME280;9763;48.780;9.212;2023-08-01T14:42:59;97212.13;;;27.03;57.98
19259;BME280;9763;48.780;9.212;2023-08-01T14:46:23;97209.44;;;27.03;56.71
19259;BME280;9763;48.780;9.212;2023-08-01T14:49:47;97213.50;;;27.06;56.49
19259;BME280;9763;48.780;9.212;2023-08-01T14:53:10;97224.78;;;27.08;55.71
19259;BME280;9763;48.780;9.212;2023-08-01T14:56:34;97223.38;;;27.05;54.80
19259;BME280;9763;48.780;9.212;2023-08-01T14:59:59;97221.88;;;26.98;54.07
19259;BME280;9763;48.780;9.212;2023-08-01T15:03:25;97226.53;;;26.90;55.26
19259;BME280;9763;48.780;9.212;2023-08-01T15:06:49;97234.66;;;26.84;55.76
19259;BME280;9763;48.780;9.212;2023-08-01T15:10:12;97221.16;;;26.79;55.66
19259;BME280;9763;48.780;9.212;2023-08-01T15:13:36;97236.72;;;26.70;55.95
19259;BME280;9763;48.780;9.212;2023-08-01T15:17:01;97239.88;;;26.67;56.82
19259;BME280;9763;48.780;9.212;2023-08-01T15:20:25;97232.75;;;26.61;55.80
19259;BME280;9763;48.780;9.212;2023-08-01T15:23:49;97242.78;;;26.54;54.46
19259;BME280;9763;48.780;9.212;2023-08-01T15:27:13;97250.56;;;26.44;54.11
19259;BME280;9763;48.780;9.212;2023-08-01T15:30:36;97242.38;;;26.39;52.30
19259;BME280;9763;48.780;9.212;2023-08-01T15:34:01;97257.13;;;26.30;52.54
19259;BME280;9763;48.780;9.212;2023-08-01T15:37:27;97255.09;;;26.25;53.58
19259;BME280;9763;48.780;9.212;2023-08-01T15:40:50;97256.84;;;26.19;53.71
19259;BME280;9763;48.780;9.212;2023-08-01T15:44:15;97257.13;;;26.11;55.40
19259;BME280;9763;48.780;9.212;2023-08-01T15:47:39;97256.91;;;26.13;55.70
19259;BME280;9763;48.780;9.212;2023-08-01T15:51:05;97261.81;;;26.16;54.56
19259;BME280;9763;48.780;9.212;2023-08-01T15:54:29;97241.00;;;26.18;55.06
19259;BME280;9763;48.780;9.212;2023-08-01T15:57:54;97252.53;;;26.18;56.06
19259;BME280;9763;48.780;9.212;2023-08-01T16:01:18;97240.78;;;26.19;54.46
19259;BME280;9763;48.780;9.212;2023-08-01T16:04:42;97240.53;;;26.21;54.96
19259;BME280;9763;48.780;9.212;2023-08-01T16:08:07;97249.16;;;26.23;54.88
19259;BME280;9763;48.780;9.212;2023-08-01T16:11:30;97249.34;;;26.28;53.58
19259;BME280;9763;48.780;9.212;2023-08-01T16:14:54;97243.88;;;26.35;55.29
19259;BME280;9763;48.780;9.212;2023-08-01T16:18:18;97234.25;;;26.45;55.92
19259;BME280;9763;48.780;9.212;2023-08-01T16:21:42;97267.31;;;26.51;56.78
19259;BME280;9763;48.780;9.212;2023-08-01T16:25:09;97254.97;;;26.50;56.14
19259;BME280;9763;48.780;9.212;2023-08-01T16:28:33;97261.47;;;26.42;54.16
19259;BME280;9763;48.780;9.212;2023-08-01T16:31:56;97264.84;;;26.38;54.68
19259;BME280;9763;48.780;9.212;2023-08-01T16:35:20;97258.66;;;26.37;52.22
19259;BME280;9763;48.780;9.212;2023-08-01T16:38:43;97267.03;;;26.29;53.63
19259;BME280;9763;48.780;9.212;2023-08-01T16:42:08;97264.88;;;26.19;53.91
19259;BME280;9763;48.780;9.212;2023-08-01T16:45:32;97276.81;;;26.17;53.55
19259;BME280;9763;48.780;9.212;2023-08-01T16:48:56;97273.72;;;26.20;54.80
19259;BME280;9763;48.780;9.212;2023-08-01T16:52:31;97275.63;;;26.13;52.34
19259;BME280;9763;48.780;9.212;2023-08-01T16:55:55;97274.53;;;26.02;52.69
19259;BME280;9763;48.780;9.212;2023-08-01T16:59:20;97294.03;;;25.91;53.24
19259;BME280;9763;48.780;9.212;2023-08-01T17:02:43;97287.13;;;25.83;54.48
19259;BME280;9763;48.780;9.212;2023-08-01T17:06:09;97293.81;;;25.74;53.92
19259;BME280;9763;48.780;9.212;2023-08-01T17:09:33;97298.41;;;25.67;55.39
19259;BME280;9763;48.780;9.212;2023-08-01T17:12:57;97305.47;;;25.62;55.16
19259;BME280;9763;48.780;9.212;2023-08-01T17:16:22;97312.09;;;25.53;53.23
19259;BME280;9763;48.780;9.212;2023-08-01T17:19:47;97309.94;;;25.43;53.29
19259;BME280;9763;48.780;9.212;2023-08-01T17:23:11;97315.59;;;25.35;54.41
19259;BME280;9763;48.780;9.212;2023-08-01T17:26:35;97310.50;;;25.27;54.84
19259;BME280;9763;48.780;9.212;2023-08-01T17:30:00;97322.91;;;25.21;55.65
19259;BME280;9763;48.780;9.212;2023-08-01T17:33:25;97317.38;;;25.16;55.96
19259;BME280;9763;48.780;9.212;2023-08-01T17:36:49;97326.06;;;25.11;54.95
19259;BME280;9763;48.780;9.212;2023-08-01T17:40:13;97328.56;;;25.06;55.49
19259;BME280;9763;48.780;9.212;2023-08-01T17:43:37;97331.88;;;25.02;55.57
19259;BME280;9763;48.780;9.212;2023-08-01T17:47:00;97330.69;;;24.98;56.12
19259;BME280;9763;48.780;9.212;2023-08-01T17:50:25;97345.50;;;24.94;56.84
19259;BME280;9763;48.780;9.212;2023-08-01T17:53:49;97356.59;;;24.91;57.24
19259;BME280;9763;48.780;9.212;2023-08-01T17:57:13;97348.22;;;24.87;57.52
19259;BME280;9763;48.780;9.212;2023-08-01T18:00:36;97364.03;;;24.82;57.75
19259;BME280;9763;48.780;9.212;2023-08-01T18:04:00;97363.28;;;24.75;55.33
19259;BME280;9763;48.780;9.212;2023-08-01T18:07:25;97358.38;;;24.65;57.07
19259;BME280;9763;48.780;9.212;2023-08-01T18:10:49;97353.94;;;24.59;56.49
19259;BME280;9763;48.780;9.212;2023-08-01T18:14:12;97360.91;;;24.54;55.74
19259;BME280;9763;48.780;9.212;2023-08-01T18:17:36;97351.94;;;24.41;56.20